sensor_id;sensor_type;location;lat;lon;timestamp;temperature;humidity
4828;DHT22;2428;48.732;9.148;2023-03-24T00:00:13;13.30;99.90
4828;DHT22;2428;48.732;9.148;2023-03-24T00:02:41;13.30;99.90
4828;DHT22;2428;48.732;9.148;2023-03-24T00:05:15;13.30;99.90
4828;DHT22;2428;48.732;9.148;2023-03-24T00:07:41;13.30;99.90
4828;DHT22;2428;48.732;9.148;2023-03-24T00:10:13;13.30;99.90
4828;DHT22;2428;48.732;9.148;2023-03-24T00:12:40;13.30;99.90
4828;DHT22;2428;48.732;9.148;2023-03-24T00:15:10;13.30;99.90
4828;DHT22;2428;48.732;9.148;2023-03-24T00:17:36;13.30;99.90
4828;DHT22;2428;48.732;9.148;2023-03-24T00:20:06;13.30;99.90
4828;DHT22;2428;48.732;9.148;2023-03-24T00:22:36;13.30;99.90
4828;DHT22;2428;48.732;9.148;2023-03-24T00:25:08;13.20;99.90
4828;DHT22;2428;48.732;9.148;2023-03-24T00:27:33;13.20;99.90
4828;DHT22;2428;48.732;9.148;2023-03-24T00:30:04;13.20;99.90
4828;DHT22;2428;48.732;9.148;2023-03-24T00:32:31;13.30;99.90
4828;DHT22;2428;48.732;9.148;2023-03-24T00:34:57;13.30;99.90
4828;DHT22;2428;48.732;9.148;2023-03-24T00:37:23;13.20;99.90
4828;DHT22;2428;48.732;9.148;2023-03-24T00:39:49;13.10;99.90
4828;DHT22;2428;48.732;9.148;2023-03-24T00:42:15;13.10;99.90
4828;DHT22;2428;48.732;9.148;2023-03-24T00:44:42;13.10;99.90
4828;DHT22;2428;48.732;9.148;2023-03-24T00:47:09;13.10;99.90
4828;DHT22;2428;48.732;9.148;2023-03-24T00:49:35;13.10;99.90
4828;DHT22;2428;48.732;9.148;2023-03-24T00:54:38;13.10;99.90
4828;DHT22;2428;48.732;9.148;2023-03-24T00:57:05;13.10;99.90
4828;DHT22;2428;48.732;9.148;2023-03-24T00:59:31;13.20;99.90
4828;DHT22;2428;48.732;9.148;2023-03-24T01:01:57;13.10;99.90
4828;DHT22;2428;48.732;9.148;2023-03-24T01:04:23;13.10;99.90
4828;DHT22;2428;48.732;9.148;2023-03-24T01:06:51;13.10;99.90
4828;DHT22;2428;48.732;9.148;2023-03-24T01:09:19;13.10;99.90
4828;DHT22;2428;48.732;9.148;2023-03-24T01:11:46;13.10;99.90
4828;DHT22;2428;48.732;9.148;2023-03-24T01:14:12;13.00;99.90
4828;DHT22;2428;48.732;9.148;2023-03-24T01:16:39;13.00;99.90
4828;DHT22;2428;48.732;9.148;2023-03-24T01:19:06;13.00;99.90
4828;DHT22;2428;48.732;9.148;2023-03-24T01:21:34;13.10;99.90
4828;DHT22;2428;48.732;9.148;2023-03-24T01:24:01;13.00;99.90
4828;DHT22;2428;48.732;9.148;2023-03-24T01:26:28;13.00;99.90
4828;DHT22;2428;48.732;9.148;2023-03-24T01:28:53;13.00;99.90
4828;DHT22;2428;48.732;9.148;2023-03-24T01:31:19;13.00;99.90
4828;DHT22;2428;48.732;9.148;2023-03-24T01:33:45;13.00;99.90
4828;DHT22;2428;48.732;9.148;2023-03-24T01:36:10;13.00;99.90
4828;DHT22;2428;48.732;9.148;2023-03-24T01:38:36;12.90;99.90
4828;DHT22;2428;48.732;9.148;2023-03-24T01:41:04;13.00;99.90
4828;DHT22;2428;48.732;9.148;2023-03-24T01:43:32;13.00;99.90
4828;DHT22;2428;48.732;9.148;2023-03-24T01:46:14;13.00;99.90
4828;DHT22;2428;48.732;9.148;2023-03-24T01:54:29;13.00;99.90
4828;DHT22;2428;48.732;9.148;2023-03-24T01:59:27;13.00;99.90
4828;DHT22;2428;48.732;9.148;2023-03-24T02:01:55;12.90;99.90
4828;DHT22;2428;48.732;9.148;2023-03-24T02:04:40;12.90;99.90
4828;DHT22;2428;48.732;9.148;2023-03-24T02:09:55;12.80;99.90
4828;DHT22;2428;48.732;9.148;2023-03-24T02:12:20;12.90;99.90
4828;DHT22;2428;48.732;9.148;2023-03-24T02:14:46;12.90;99.90
4828;DHT22;2428;48.732;9.148;2023-03-24T02:17:22;12.90;99.90
4828;DHT22;2428;48.732;9.148;2023-03-24T02:45:12;12.90;99.90
4828;DHT22;2428;48.732;9.148;2023-03-24T02:50:28;13.00;99.90
4828;DHT22;2428;48.732;9.148;2023-03-24T02:55:56;13.00;99.90
4828;DHT22;2428;48.732;9.148;2023-03-24T02:58:39;13.10;99.90
4828;DHT22;2428;48.732;9.148;2023-03-24T03:01:12;13.10;99.90
4828;DHT22;2428;48.732;9.148;2023-03-24T03:03:47;13.10;99.90
4828;DHT22;2428;48.732;9.148;2023-03-24T03:06:21;13.20;99.90
4828;DHT22;2428;48.732;9.148;2023-03-24T03:08:49;13.20;99.90
4828;DHT22;2428;48.732;9.148;2023-03-24T03:11:16;13.20;99.90
4828;DHT22;2428;48.732;9.148;2023-03-24T03:13:50;13.20;99.90
4828;DHT22;2428;48.732;9.148;2023-03-24T03:16:47;13.20;99.90
4828;DHT22;2428;48.732;9.148;2023-03-24T03:19:21;13.20;99.90
4828;DHT22;2428;48.732;9.148;2023-03-24T03:21:48;13.20;99.90
4828;DHT22;2428;48.732;9.148;2023-03-24T03:24:21;13.20;99.90
4828;DHT22;2428;48.732;9.148;2023-03-24T03:26:54;13.20;99.90
4828;DHT22;2428;48.732;9.148;2023-03-24T03:29:25;13.20;99.90
4828;DHT22;2428;48.732;9.148;2023-03-24T03:32:00;13.20;99.90
4828;DHT22;2428;48.732;9.148;2023-03-24T03:35:16;13.20;99.90
4828;DHT22;2428;48.732;9.148;2023-03-24T03:40:22;13.30;99.90
4828;DHT22;2428;48.732;9.148;2023-03-24T03:42:49;13.30;99.90
4828;DHT22;2428;48.732;9.148;2023-03-24T03:45:16;13.30;99.90
4828;DHT22;2428;48.732;9.148;2023-03-24T03:47:42;13.30;99.90
4828;DHT22;2428;48.732;9.148;2023-03-24T03:50:08;13.30;99.90
4828;DHT22;2428;48.732;9.148;2023-03-24T03:52:36;13.30;99.90
4828;DHT22;2428;48.732;9.148;2023-03-24T03:55:04;13.30;99.90
4828;DHT22;2428;48.732;9.148;2023-03-24T03:57:31;13.40;99.90
4828;DHT22;2428;48.732;9.148;2023-03-24T04:00:00;13.40;99.90
4828;DHT22;2428;48.732;9.148;2023-03-24T04:02:58;13.40;99.90
4828;DHT22;2428;48.732;9.148;2023-03-24T04:05:35;13.40;99.90
4828;DHT22;2428;48.732;9.148;2023-03-24T04:08:24;13.40;99.90
4828;DHT22;2428;48.732;9.148;2023-03-24T04:16:59;13.50;99.90
4828;DHT22;2428;48.732;9.148;2023-03-24T04:20:01;13.50;99.90
4828;DHT22;2428;48.732;9.148;2023-03-24T04:28:20;13.40;99.90
4828;DHT22;2428;48.732;9.148;2023-03-24T04:31:07;13.50;99.90
4828;DHT22;2428;48.732;9.148;2023-03-24T04:33:48;13.50;99.90
4828;DHT22;2428;48.732;9.148;2023-03-24T04:36:40;13.50;99.90
4828;DHT22;2428;48.732;9.148;2023-03-24T04:39:12;13.50;99.90
4828;DHT22;2428;48.732;9.148;2023-03-24T04:41:40;13.50;99.90
4828;DHT22;2428;48.732;9.148;2023-03-24T04:44:07;13.50;99.90
4828;DHT22;2428;48.732;9.148;2023-03-24T04:46:35;13.50;99.90
4828;DHT22;2428;48.732;9.148;2023-03-24T04:49:01;13.50;99.90
4828;DHT22;2428;48.732;9.148;2023-03-24T04:51:27;13.50;99.90
4828;DHT22;2428;48.732;9.148;2023-03-24T04:53:53;13.50;99.90
4828;DHT22;2428;48.732;9.148;2023-03-24T04:56:44;13.60;99.90
4828;DHT22;2428;48.732;9.148;2023-03-24T04:59:12;13.60;99.90
4828;DHT22;2428;48.732;9.148;2023-03-24T05:01:38;13.60;99.90
4828;DHT22;2428;48.732;9.148;2023-03-24T05:04:05;13.70;99.90
4828;DHT22;2428;48.732;9.148;2023-03-24T05:06:31;13.80;99.90
4828;DHT22;2428;48.732;9.148;2023-03-24T05:08:57;13.90;99.90
4828;DHT22;2428;48.732;9.148;2023-03-24T05:11:24;14.00;99.90
4828;DHT22;2428;48.732;9.148;2023-03-24T05:13:51;14.10;99.90
4828;DHT22;2428;48.732;9.148;2023-03-24T05:16:16;14.10;99.90
4828;DHT22;2428;48.732;9.148;2023-03-24T05:18:42;14.20;99.90
4828;DHT22;2428;48.732;9.148;2023-03-24T05:21:08;14.20;99.90
4828;DHT22;2428;48.732;9.148;2023-03-24T05:23:34;14.20;99.90
4828;DHT22;2428;48.732;9.148;2023-03-24T05:25:59;14.20;99.90
4828;DHT22;2428;48.732;9.148;2023-03-24T05:28:25;14.10;99.90
4828;DHT22;2428;48.732;9.148;2023-03-24T05:30:51;14.00;99.90
4828;DHT22;2428;48.732;9.148;2023-03-24T05:33:17;13.90;99.90
4828;DHT22;2428;48.732;9.148;2023-03-24T05:35:42;13.80;99.90
4828;DHT22;2428;48.732;9.148;2023-03-24T05:38:08;13.70;99.90
4828;DHT22;2428;48.732;9.148;2023-03-24T05:40:35;13.60;99.90
4828;DHT22;2428;48.732;9.148;2023-03-24T05:43:01;13.40;99.90
4828;DHT22;2428;48.732;9.148;2023-03-24T05:45:26;13.30;99.90
4828;DHT22;2428;48.732;9.148;2023-03-24T05:47:53;13.20;99.90
4828;DHT22;2428;48.732;9.148;2023-03-24T05:50:20;13.10;99.90
4828;DHT22;2428;48.732;9.148;2023-03-24T05:52:45;13.10;99.90
4828;DHT22;2428;48.732;9.148;2023-03-24T05:55:11;13.00;99.90
4828;DHT22;2428;48.732;9.148;2023-03-24T05:57:37;13.00;99.90
4828;DHT22;2428;48.732;9.148;2023-03-24T06:00:04;12.90;99.90
4828;DHT22;2428;48.732;9.148;2023-03-24T06:02:40;12.90;99.90
4828;DHT22;2428;48.732;9.148;2023-03-24T06:05:06;12.80;99.90
4828;DHT22;2428;48.732;9.148;2023-03-24T06:07:34;12.80;99.90
4828;DHT22;2428;48.732;9.148;2023-03-24T06:09:59;12.70;99.90
4828;DHT22;2428;48.732;9.148;2023-03-24T06:12:28;12.70;99.90
4828;DHT22;2428;48.732;9.148;2023-03-24T06:14:54;12.70;99.90
4828;DHT22;2428;48.732;9.148;2023-03-24T06:17:20;12.70;99.90
4828;DHT22;2428;48.732;9.148;2023-03-24T06:19:45;12.70;99.90
4828;DHT22;2428;48.732;9.148;2023-03-24T06:22:16;12.70;99.90
4828;DHT22;2428;48.732;9.148;2023-03-24T06:24:42;12.60;99.90
4828;DHT22;2428;48.732;9.148;2023-03-24T06:27:08;12.60;99.90
4828;DHT22;2428;48.732;9.148;2023-03-24T06:29:34;12.60;99.90
4828;DHT22;2428;48.732;9.148;2023-03-24T06:32:00;12.60;99.90
4828;DHT22;2428;48.732;9.148;2023-03-24T06:34:26;12.70;99.90
4828;DHT22;2428;48.732;9.148;2023-03-24T06:36:54;12.70;99.90
4828;DHT22;2428;48.732;9.148;2023-03-24T06:39:20;12.80;99.90
4828;DHT22;2428;48.732;9.148;2023-03-24T06:41:46;12.80;99.90
4828;DHT22;2428;48.732;9.148;2023-03-24T06:44:12;12.80;99.90
4828;DHT22;2428;48.732;9.148;2023-03-24T06:46:37;12.90;99.90
4828;DHT22;2428;48.732;9.148;2023-03-24T06:49:04;12.80;99.90
4828;DHT22;2428;48.732;9.148;2023-03-24T06:51:30;12.90;99.90
4828;DHT22;2428;48.732;9.148;2023-03-24T06:53:56;12.90;99.90
4828;DHT22;2428;48.732;9.148;2023-03-24T06:56:21;12.80;99.90
4828;DHT22;2428;48.732;9.148;2023-03-24T06:58:47;12.80;99.90
4828;DHT22;2428;48.732;9.148;2023-03-24T07:01:13;12.80;99.90
4828;DHT22;2428;48.732;9.148;2023-03-24T07:03:39;12.80;99.90
4828;DHT22;2428;48.732;9.148;2023-03-24T07:06:06;12.80;99.90
4828;DHT22;2428;48.732;9.148;2023-03-24T07:08:32;12.60;99.90
4828;DHT22;2428;48.732;9.148;2023-03-24T07:10:58;12.60;99.90
4828;DHT22;2428;48.732;9.148;2023-03-24T07:13:24;12.50;99.90
4828;DHT22;2428;48.732;9.148;2023-03-24T07:15:50;12.40;99.90
4828;DHT22;2428;48.732;9.148;2023-03-24T07:18:16;12.30;99.90
4828;DHT22;2428;48.732;9.148;2023-03-24T07:20:43;12.20;99.90
4828;DHT22;2428;48.732;9.148;2023-03-24T07:23:09;12.20;99.90
4828;DHT22;2428;48.732;9.148;2023-03-24T07:25:35;12.20;99.90
4828;DHT22;2428;48.732;9.148;2023-03-24T07:28:01;12.10;99.90
4828;DHT22;2428;48.732;9.148;2023-03-24T07:30:26;12.10;99.90
4828;DHT22;2428;48.732;9.148;2023-03-24T07:32:55;12.00;99.90
4828;DHT22;2428;48.732;9.148;2023-03-24T07:35:21;12.00;99.90
4828;DHT22;2428;48.732;9.148;2023-03-24T07:37:47;12.00;99.90
4828;DHT22;2428;48.732;9.148;2023-03-24T07:40:13;11.90;99.90
4828;DHT22;2428;48.732;9.148;2023-03-24T07:42:41;11.90;99.90
4828;DHT22;2428;48.732;9.148;2023-03-24T07:45:09;11.80;99.90
4828;DHT22;2428;48.732;9.148;2023-03-24T07:47:35;11.80;99.90
4828;DHT22;2428;48.732;9.148;2023-03-24T07:50:01;11.80;99.90
4828;DHT22;2428;48.732;9.148;2023-03-24T07:52:28;11.80;99.90
4828;DHT22;2428;48.732;9.148;2023-03-24T07:54:55;11.80;99.90
4828;DHT22;2428;48.732;9.148;2023-03-24T07:57:21;11.80;99.90
4828;DHT22;2428;48.732;9.148;2023-03-24T07:59:47;11.70;99.90
4828;DHT22;2428;48.732;9.148;2023-03-24T08:02:19;11.70;99.90
4828;DHT22;2428;48.732;9.148;2023-03-24T08:04:45;11.80;99.90
4828;DHT22;2428;48.732;9.148;2023-03-24T08:07:11;11.80;99.90
4828;DHT22;2428;48.732;9.148;2023-03-24T08:09:38;11.80;99.90
4828;DHT22;2428;48.732;9.148;2023-03-24T08:12:04;11.80;99.90
4828;DHT22;2428;48.732;9.148;2023-03-24T08:14:30;11.80;99.90
4828;DHT22;2428;48.732;9.148;2023-03-24T08:16:55;11.80;99.90
4828;DHT22;2428;48.732;9.148;2023-03-24T08:19:21;11.80;99.90
4828;DHT22;2428;48.732;9.148;2023-03-24T08:21:47;11.80;99.90
4828;DHT22;2428;48.732;9.148;2023-03-24T08:24:12;11.80;99.90
4828;DHT22;2428;48.732;9.148;2023-03-24T08:26:38;11.90;99.90
4828;DHT22;2428;48.732;9.148;2023-03-24T08:29:04;12.00;99.90
4828;DHT22;2428;48.732;9.148;2023-03-24T08:31:31;12.00;99.90
4828;DHT22;2428;48.732;9.148;2023-03-24T08:33:57;12.00;99.90
4828;DHT22;2428;48.732;9.148;2023-03-24T08:36:24;12.00;99.90
4828;DHT22;2428;48.732;9.148;2023-03-24T08:38:52;12.00;99.90
4828;DHT22;2428;48.732;9.148;2023-03-24T08:41:19;12.00;99.90
4828;DHT22;2428;48.732;9.148;2023-03-24T08:43:44;12.00;99.90
4828;DHT22;2428;48.732;9.148;2023-03-24T08:46:10;12.10;99.90
4828;DHT22;2428;48.732;9.148;2023-03-24T08:48:36;12.00;99.90
4828;DHT22;2428;48.732;9.148;2023-03-24T08:51:12;12.10;99.90
4828;DHT22;2428;48.732;9.148;2023-03-24T08:53:39;12.10;99.90
4828;DHT22;2428;48.732;9.148;2023-03-24T08:56:04;12.10;99.90
4828;DHT22;2428;48.732;9.148;2023-03-24T08:58:31;12.10;99.90
4828;DHT22;2428;48.732;9.148;2023-03-24T09:00:56;12.10;99.90
4828;DHT22;2428;48.732;9.148;2023-03-24T09:03:22;12.10;99.90
4828;DHT22;2428;48.732;9.148;2023-03-24T09:05:49;12.20;99.90
4828;DHT22;2428;48.732;9.148;2023-03-24T09:08:17;12.20;99.90
4828;DHT22;2428;48.732;9.148;2023-03-24T09:10:43;12.20;99.90
4828;DHT22;2428;48.732;9.148;2023-03-24T09:13:11;12.20;99.90
4828;DHT22;2428;48.732;9.148;2023-03-24T09:15:37;12.30;99.90
4828;DHT22;2428;48.732;9.148;2023-03-24T09:18:03;12.40;99.90
4828;DHT22;2428;48.732;9.148;2023-03-24T09:20:29;12.40;99.90
4828;DHT22;2428;48.732;9.148;2023-03-24T09:22:55;12.40;99.90
4828;DHT22;2428;48.732;9.148;2023-03-24T09:25:21;12.40;99.90
4828;DHT22;2428;48.732;9.148;2023-03-24T09:27:47;12.50;99.90
4828;DHT22;2428;48.732;9.148;2023-03-24T09:30:15;12.50;99.90
4828;DHT22;2428;48.732;9.148;2023-03-24T09:32:41;12.50;99.90
4828;DHT22;2428;48.732;9.148;2023-03-24T09:35:07;12.60;99.90
4828;DHT22;2428;48.732;9.148;2023-03-24T09:37:35;12.60;99.90
4828;DHT22;2428;48.732;9.148;2023-03-24T09:40:01;12.70;99.90
4828;DHT22;2428;48.732;9.148;2023-03-24T09:42:34;12.70;99.90
4828;DHT22;2428;48.732;9.148;2023-03-24T09:45:14;12.80;99.90
4828;DHT22;2428;48.732;9.148;2023-03-24T09:48:03;13.00;99.90
4828;DHT22;2428;48.732;9.148;2023-03-24T09:50:34;13.10;99.90
4828;DHT22;2428;48.732;9.148;2023-03-24T09:53:28;13.10;99.90
4828;DHT22;2428;48.732;9.148;2023-03-24T09:55:51;13.10;99.90
4828;DHT22;2428;48.732;9.148;2023-03-24T09:58:18;13.10;99.90
4828;DHT22;2428;48.732;9.148;2023-03-24T10:00:44;13.10;99.90
4828;DHT22;2428;48.732;9.148;2023-03-24T10:03:21;13.20;99.90
4828;DHT22;2428;48.732;9.148;2023-03-24T10:08:31;13.80;99.90
4828;DHT22;2428;48.732;9.148;2023-03-24T10:16:37;14.60;99.90
4828;DHT22;2428;48.732;9.148;2023-03-24T10:22:29;14.10;99.90
4828;DHT22;2428;48.732;9.148;2023-03-24T10:27:45;14.00;99.90
4828;DHT22;2428;48.732;9.148;2023-03-24T10:30:19;14.10;99.90
4828;DHT22;2428;48.732;9.148;2023-03-24T10:32:47;14.10;99.90
4828;DHT22;2428;48.732;9.148;2023-03-24T10:35:23;14.20;99.90
4828;DHT22;2428;48.732;9.148;2023-03-24T10:37:51;14.20;99.90
4828;DHT22;2428;48.732;9.148;2023-03-24T10:40:19;14.30;99.90
4828;DHT22;2428;48.732;9.148;2023-03-24T10:42:47;14.30;99.90
4828;DHT22;2428;48.732;9.148;2023-03-24T10:45:27;14.30;99.90
4828;DHT22;2428;48.732;9.148;2023-03-24T10:47:56;14.30;99.90
4828;DHT22;2428;48.732;9.148;2023-03-24T10:50:25;14.30;99.90
4828;DHT22;2428;48.732;9.148;2023-03-24T10:52:51;14.30;99.90
4828;DHT22;2428;48.732;9.148;2023-03-24T10:55:19;14.40;99.90
4828;DHT22;2428;48.732;9.148;2023-03-24T10:57:50;14.30;99.90
4828;DHT22;2428;48.732;9.148;2023-03-24T11:00:19;14.30;99.90
4828;DHT22;2428;48.732;9.148;2023-03-24T11:02:59;14.20;99.90
4828;DHT22;2428;48.732;9.148;2023-03-24T11:05:31;14.20;99.90
4828;DHT22;2428;48.732;9.148;2023-03-24T11:10:42;14.10;99.90
4828;DHT22;2428;48.732;9.148;2023-03-24T11:13:19;14.30;99.90
4828;DHT22;2428;48.732;9.148;2023-03-24T11:15:53;14.70;99.90
4828;DHT22;2428;48.732;9.148;2023-03-24T11:18:20;14.90;99.90
4828;DHT22;2428;48.732;9.148;2023-03-24T11:20:58;14.80;99.90
4828;DHT22;2428;48.732;9.148;2023-03-24T11:23:32;14.70;99.90
4828;DHT22;2428;48.732;9.148;2023-03-24T11:26:34;14.70;99.90
4828;DHT22;2428;48.732;9.148;2023-03-24T11:29:06;14.60;99.90
4828;DHT22;2428;48.732;9.148;2023-03-24T11:31:36;14.60;99.90
4828;DHT22;2428;48.732;9.148;2023-03-24T11:34:18;14.70;99.90
4828;DHT22;2428;48.732;9.148;2023-03-24T11:36:56;14.80;99.90
4828;DHT22;2428;48.732;9.148;2023-03-24T11:39:24;14.80;99.90
4828;DHT22;2428;48.732;9.148;2023-03-24T11:44:19;14.60;99.90
4828;DHT22;2428;48.732;9.148;2023-03-24T11:46:48;14.60;99.90
4828;DHT22;2428;48.732;9.148;2023-03-24T11:49:18;14.60;99.90
4828;DHT22;2428;48.732;9.148;2023-03-24T11:51:46;14.50;99.90
4828;DHT22;2428;48.732;9.148;2023-03-24T11:54:17;14.40;99.90
4828;DHT22;2428;48.732;9.148;2023-03-24T11:56:51;14.50;99.90
4828;DHT22;2428;48.732;9.148;2023-03-24T11:59:36;14.50;99.90
4828;DHT22;2428;48.732;9.148;2023-03-24T12:21:28;14.50;99.90
4828;DHT22;2428;48.732;9.148;2023-03-24T12:26:35;14.60;99.90
4828;DHT22;2428;48.732;9.148;2023-03-24T12:40:25;14.60;99.90
4828;DHT22;2428;48.732;9.148;2023-03-24T12:45:57;14.60;99.90
4828;DHT22;2428;48.732;9.148;2023-03-24T12:56:39;14.30;99.90
4828;DHT22;2428;48.732;9.148;2023-03-24T12:59:13;14.30;99.90
4828;DHT22;2428;48.732;9.148;2023-03-24T13:01:51;14.30;99.90
4828;DHT22;2428;48.732;9.148;2023-03-24T13:04:28;14.30;99.90
4828;DHT22;2428;48.732;9.148;2023-03-24T13:09:42;14.30;99.90
4828;DHT22;2428;48.732;9.148;2023-03-24T13:12:22;14.20;99.90
4828;DHT22;2428;48.732;9.148;2023-03-24T13:20:32;14.20;99.90
4828;DHT22;2428;48.732;9.148;2023-03-24T13:28:30;14.00;99.90
4828;DHT22;2428;48.732;9.148;2023-03-24T13:30:58;13.90;99.90
4828;DHT22;2428;48.732;9.148;2023-03-24T13:33:28;13.90;99.90
4828;DHT22;2428;48.732;9.148;2023-03-24T13:41:04;13.80;99.90
4828;DHT22;2428;48.732;9.148;2023-03-24T13:43:31;13.80;99.90
4828;DHT22;2428;48.732;9.148;2023-03-24T13:45:58;13.80;99.90
4828;DHT22;2428;48.732;9.148;2023-03-24T13:48:31;13.70;99.90
4828;DHT22;2428;48.732;9.148;2023-03-24T13:51:01;13.80;99.90
4828;DHT22;2428;48.732;9.148;2023-03-24T13:53:40;13.80;99.90
4828;DHT22;2428;48.732;9.148;2023-03-24T13:56:08;13.80;99.90
4828;DHT22;2428;48.732;9.148;2023-03-24T14:01:37;13.80;99.90
4828;DHT22;2428;48.732;9.148;2023-03-24T14:04:42;13.80;99.90
4828;DHT22;2428;48.732;9.148;2023-03-24T14:15:32;13.70;99.90
4828;DHT22;2428;48.732;9.148;2023-03-24T14:26:32;13.60;99.90
4828;DHT22;2428;48.732;9.148;2023-03-24T14:29:01;13.60;99.90
4828;DHT22;2428;48.732;9.148;2023-03-24T14:31:33;13.60;99.90
4828;DHT22;2428;48.732;9.148;2023-03-24T14:34:12;13.60;99.90
4828;DHT22;2428;48.732;9.148;2023-03-24T14:36:43;13.60;99.90
4828;DHT22;2428;48.732;9.148;2023-03-24T14:42:25;13.50;99.90
4828;DHT22;2428;48.732;9.148;2023-03-24T14:44:52;13.70;99.90
4828;DHT22;2428;48.732;9.148;2023-03-24T14:47:25;13.70;99.90
4828;DHT22;2428;48.732;9.148;2023-03-24T14:49:54;13.70;99.90
4828;DHT22;2428;48.732;9.148;2023-03-24T14:52:31;13.70;99.90
4828;DHT22;2428;48.732;9.148;2023-03-24T14:55:01;13.70;99.90
4828;DHT22;2428;48.732;9.148;2023-03-24T14:57:30;13.60;99.90
4828;DHT22;2428;48.732;9.148;2023-03-24T15:00:02;13.40;99.90
4828;DHT22;2428;48.732;9.148;2023-03-24T15:07:39;12.90;99.90
4828;DHT22;2428;48.732;9.148;2023-03-24T15:10:05;12.90;99.90
4828;DHT22;2428;48.732;9.148;2023-03-24T15:12:32;12.60;99.90
4828;DHT22;2428;48.732;9.148;2023-03-24T15:14:58;12.50;99.90
4828;DHT22;2428;48.732;9.148;2023-03-24T15:17:24;12.40;99.90
4828;DHT22;2428;48.732;9.148;2023-03-24T15:19:51;12.40;99.90
4828;DHT22;2428;48.732;9.148;2023-03-24T15:22:17;12.20;99.90
4828;DHT22;2428;48.732;9.148;2023-03-24T15:24:46;12.10;99.90
4828;DHT22;2428;48.732;9.148;2023-03-24T15:27:24;12.00;99.90
4828;DHT22;2428;48.732;9.148;2023-03-24T15:29:56;11.80;99.90
4828;DHT22;2428;48.732;9.148;2023-03-24T15:32:23;11.70;99.90
4828;DHT22;2428;48.732;9.148;2023-03-24T15:34:54;11.70;99.90
4828;DHT22;2428;48.732;9.148;2023-03-24T15:37:24;11.50;99.90
4828;DHT22;2428;48.732;9.148;2023-03-24T15:39:54;11.50;99.90
4828;DHT22;2428;48.732;9.148;2023-03-24T15:42:22;11.50;99.90
4828;DHT22;2428;48.732;9.148;2023-03-24T15:44:48;11.40;99.90
4828;DHT22;2428;48.732;9.148;2023-03-24T15:49:53;11.20;99.90
4828;DHT22;2428;48.732;9.148;2023-03-24T15:52:27;11.10;99.90
4828;DHT22;2428;48.732;9.148;2023-03-24T15:55:01;11.10;99.90
4828;DHT22;2428;48.732;9.148;2023-03-24T15:57:39;11.00;99.90
4828;DHT22;2428;48.732;9.148;2023-03-24T16:00:16;11.00;99.90
4828;DHT22;2428;48.732;9.148;2023-03-24T16:02:51;11.00;99.90
4828;DHT22;2428;48.732;9.148;2023-03-24T16:05:28;11.00;99.90
4828;DHT22;2428;48.732;9.148;2023-03-24T16:08:05;11.00;99.90
4828;DHT22;2428;48.732;9.148;2023-03-24T16:10:38;11.10;99.90
4828;DHT22;2428;48.732;9.148;2023-03-24T16:13:16;11.20;99.90
4828;DHT22;2428;48.732;9.148;2023-03-24T16:15:46;11.20;99.90
4828;DHT22;2428;48.732;9.148;2023-03-24T16:18:15;11.20;99.90
4828;DHT22;2428;48.732;9.148;2023-03-24T16:20:42;11.20;99.90
4828;DHT22;2428;48.732;9.148;2023-03-24T16:23:09;11.30;99.90
4828;DHT22;2428;48.732;9.148;2023-03-24T16:25:35;11.30;99.90
4828;DHT22;2428;48.732;9.148;2023-03-24T16:28:01;11.30;99.90
4828;DHT22;2428;48.732;9.148;2023-03-24T16:30:28;11.30;99.90
4828;DHT22;2428;48.732;9.148;2023-03-24T16:32:56;11.30;99.90
4828;DHT22;2428;48.732;9.148;2023-03-24T16:35:22;11.30;99.90
4828;DHT22;2428;48.732;9.148;2023-03-24T16:37:47;11.40;99.90
4828;DHT22;2428;48.732;9.148;2023-03-24T16:40:20;11.50;99.90
4828;DHT22;2428;48.732;9.148;2023-03-24T16:42:46;11.40;99.90
4828;DHT22;2428;48.732;9.148;2023-03-24T16:45:12;11.40;99.90
4828;DHT22;2428;48.732;9.148;2023-03-24T16:47:37;11.50;99.90
4828;DHT22;2428;48.732;9.148;2023-03-24T16:50:24;11.50;99.90
4828;DHT22;2428;48.732;9.148;2023-03-24T16:52:51;11.50;99.90
4828;DHT22;2428;48.732;9.148;2023-03-24T16:55:17;11.50;99.90
4828;DHT22;2428;48.732;9.148;2023-03-24T16:57:43;11.50;99.90
4828;DHT22;2428;48.732;9.148;2023-03-24T17:00:09;11.50;99.90
4828;DHT22;2428;48.732;9.148;2023-03-24T17:02:36;11.40;99.90
4828;DHT22;2428;48.732;9.148;2023-03-24T17:07:42;11.40;99.90
4828;DHT22;2428;48.732;9.148;2023-03-24T17:10:08;11.40;99.90
4828;DHT22;2428;48.732;9.148;2023-03-24T17:12:34;11.40;99.90
4828;DHT22;2428;48.732;9.148;2023-03-24T17:14:59;11.40;99.90
4828;DHT22;2428;48.732;9.148;2023-03-24T17:17:25;11.40;99.90
4828;DHT22;2428;48.732;9.148;2023-03-24T17:19:51;11.40;99.90
4828;DHT22;2428;48.732;9.148;2023-03-24T17:22:16;11.30;99.90
4828;DHT22;2428;48.732;9.148;2023-03-24T17:24:43;11.30;99.90
4828;DHT22;2428;48.732;9.148;2023-03-24T17:27:16;11.30;99.90
4828;DHT22;2428;48.732;9.148;2023-03-24T17:29:43;11.30;99.90
4828;DHT22;2428;48.732;9.148;2023-03-24T17:32:09;11.20;99.90
4828;DHT22;2428;48.732;9.148;2023-03-24T17:34:35;11.20;99.90
4828;DHT22;2428;48.732;9.148;2023-03-24T17:37:02;11.20;99.90
4828;DHT22;2428;48.732;9.148;2023-03-24T17:39:28;11.20;99.90
4828;DHT22;2428;48.732;9.148;2023-03-24T17:41:54;11.20;99.90
4828;DHT22;2428;48.732;9.148;2023-03-24T17:44:22;11.10;99.90
4828;DHT22;2428;48.732;9.148;2023-03-24T17:46:48;11.10;99.90
4828;DHT22;2428;48.732;9.148;2023-03-24T17:49:14;11.10;99.90
4828;DHT22;2428;48.732;9.148;2023-03-24T17:51:39;11.10;99.90
4828;DHT22;2428;48.732;9.148;2023-03-24T17:54:05;11.00;99.90
4828;DHT22;2428;48.732;9.148;2023-03-24T17:56:31;11.00;99.90
4828;DHT22;2428;48.732;9.148;2023-03-24T17:58:56;10.90;99.90
4828;DHT22;2428;48.732;9.148;2023-03-24T18:01:27;10.90;99.90
4828;DHT22;2428;48.732;9.148;2023-03-24T18:03:54;10.90;99.90
4828;DHT22;2428;48.732;9.148;2023-03-24T18:06:20;10.90;99.90
4828;DHT22;2428;48.732;9.148;2023-03-24T18:08:45;10.90;99.90
4828;DHT22;2428;48.732;9.148;2023-03-24T18:11:13;10.80;99.90
4828;DHT22;2428;48.732;9.148;2023-03-24T18:13:39;10.80;99.90
4828;DHT22;2428;48.732;9.148;2023-03-24T18:16:06;10.80;99.90
4828;DHT22;2428;48.732;9.148;2023-03-24T18:18:33;10.80;99.90
4828;DHT22;2428;48.732;9.148;2023-03-24T18:20:59;10.70;99.90
4828;DHT22;2428;48.732;9.148;2023-03-24T18:23:24;10.80;99.90
4828;DHT22;2428;48.732;9.148;2023-03-24T18:25:58;10.70;99.90
4828;DHT22;2428;48.732;9.148;2023-03-24T18:28:24;10.70;99.90
4828;DHT22;2428;48.732;9.148;2023-03-24T18:30:50;10.70;99.90
4828;DHT22;2428;48.732;9.148;2023-03-24T18:33:16;10.70;99.90
4828;DHT22;2428;48.732;9.148;2023-03-24T18:35:47;10.60;99.90
4828;DHT22;2428;48.732;9.148;2023-03-24T18:38:13;10.60;99.90
4828;DHT22;2428;48.732;9.148;2023-03-24T18:40:45;10.60;99.90
4828;DHT22;2428;48.732;9.148;2023-03-24T18:43:11;10.60;99.90
4828;DHT22;2428;48.732;9.148;2023-03-24T18:45:37;10.60;99.90
4828;DHT22;2428;48.732;9.148;2023-03-24T18:48:03;10.60;99.90
4828;DHT22;2428;48.732;9.148;2023-03-24T18:50:28;10.60;99.90
4828;DHT22;2428;48.732;9.148;2023-03-24T18:52:54;10.60;99.90
4828;DHT22;2428;48.732;9.148;2023-03-24T18:55:20;10.60;99.90
4828;DHT22;2428;48.732;9.148;2023-03-24T18:57:48;10.60;99.90
4828;DHT22;2428;48.732;9.148;2023-03-24T19:00:14;10.50;99.90
4828;DHT22;2428;48.732;9.148;2023-03-24T19:02:40;10.50;99.90
4828;DHT22;2428;48.732;9.148;2023-03-24T19:05:06;10.50;99.90
4828;DHT22;2428;48.732;9.148;2023-03-24T19:07:32;10.50;99.90
4828;DHT22;2428;48.732;9.148;2023-03-24T19:09:57;10.60;99.90